sensor_id;sensor_type;location;lat;lon;timestamp;pressure;altitude;pressure_sealevel;temperature;humidity
60355;BME280;46198;51.464;-0.066;2024-03-02T00:02:00;99060.16;;;3.68;100.00
60355;BME280;46198;51.464;-0.066;2024-03-02T00:04:28;99056.22;;;3.71;100.00
60355;BME280;46198;51.464;-0.066;2024-03-02T00:06:57;99056.84;;;3.73;100.00
60355;BME280;46198;51.464;-0.066;2024-03-02T00:09:25;99048.41;;;3.69;100.00
60355;BME280;46198;51.464;-0.066;2024-03-02T00:11:55;99053.97;;;3.68;100.00
60355;BME280;46198;51.464;-0.066;2024-03-02T00:14:23;99052.94;;;3.69;100.00
60355;BME280;46198;51.464;-0.066;2024-03-02T00:17:04;99054.16;;;3.73;100.00
60355;BME280;46198;51.464;-0.066;2024-03-02T00:19:32;99056.88;;;3.66;100.00
60355;BME280;46198;51.464;-0.066;2024-03-02T00:22:01;99063.66;;;3.69;100.00
60355;BME280;46198;51.464;-0.066;2024-03-02T00:24:32;99066.34;;;3.69;100.00
60355;BME280;46198;51.464;-0.066;2024-03-02T00:27:04;99067.56;;;3.73;100.00
60355;BME280;46198;51.464;-0.066;2024-03-02T00:29:40;99059.56;;;3.66;100.00
60355;BME280;46198;51.464;-0.066;2024-03-02T00:32:11;99057.09;;;3.65;100.00
60355;BME280;46198;51.464;-0.066;2024-03-02T00:34:40;99053.81;;;3.63;100.00
60355;BME280;46198;51.464;-0.066;2024-03-02T00:37:09;99056.50;;;3.63;100.00
60355;BME280;46198;51.464;-0.066;2024-03-02T00:39:38;99062.91;;;3.62;100.00
60355;BME280;46198;51.464;-0.066;2024-03-02T00:42:08;99057.31;;;3.63;100.00
60355;BME280;46198;51.464;-0.066;2024-03-02T00:44:37;99056.50;;;3.63;100.00
60355;BME280;46198;51.464;-0.066;2024-03-02T00:47:05;99057.56;;;3.62;100.00
60355;BME280;46198;51.464;-0.066;2024-03-02T00:49:33;99049.94;;;3.59;100.00
60355;BME280;46198;51.464;-0.066;2024-03-02T00:52:05;99056.94;;;3.60;100.00
60355;BME280;46198;51.464;-0.066;2024-03-02T00:54:34;99047.84;;;3.61;100.00
60355;BME280;46198;51.464;-0.066;2024-03-02T00:57:04;99049.09;;;3.58;100.00
60355;BME280;46198;51.464;-0.066;2024-03-02T00:59:34;99044.13;;;3.62;100.00
60355;BME280;46198;51.464;-0.066;2024-03-02T01:02:02;99035.03;;;3.63;100.00
60355;BME280;46198;51.464;-0.066;2024-03-02T01:04:31;99028.78;;;3.69;100.00
60355;BME280;46198;51.464;-0.066;2024-03-02T01:06:59;99030.88;;;3.67;100.00
60355;BME280;46198;51.464;-0.066;2024-03-02T01:09:28;99030.44;;;3.70;100.00
60355;BME280;46198;51.464;-0.066;2024-03-02T01:11:56;99014.94;;;3.72;100.00
60355;BME280;46198;51.464;-0.066;2024-03-02T01:14:24;99022.81;;;3.67;100.00
60355;BME280;46198;51.464;-0.066;2024-03-02T01:16:54;99020.31;;;3.72;100.00
60355;BME280;46198;51.464;-0.066;2024-03-02T01:19:23;99018.38;;;3.79;100.00
60355;BME280;46198;51.464;-0.066;2024-03-02T01:21:52;99025.44;;;3.73;100.00
60355;BME280;46198;51.464;-0.066;2024-03-02T01:24:23;99029.72;;;3.81;100.00
60355;BME280;46198;51.464;-0.066;2024-03-02T01:26:51;99029.09;;;3.79;100.00
60355;BME280;46198;51.464;-0.066;2024-03-02T01:29:20;99023.28;;;3.82;100.00
60355;BME280;46198;51.464;-0.066;2024-03-02T01:31:49;99026.78;;;3.83;100.00
60355;BME280;46198;51.464;-0.066;2024-03-02T01:34:19;99026.38;;;3.86;100.00
60355;BME280;46198;51.464;-0.066;2024-03-02T01:36:48;99029.44;;;3.89;100.00
60355;BME280;46198;51.464;-0.066;2024-03-02T01:39:16;99027.34;;;3.91;100.00
60355;BME280;46198;51.464;-0.066;2024-03-02T01:41:44;99026.31;;;3.92;100.00
60355;BME280;46198;51.464;-0.066;2024-03-02T01:44:13;99035.34;;;3.98;100.00
60355;BME280;46198;51.464;-0.066;2024-03-02T01:46:41;99024.59;;;3.98;100.00
60355;BME280;46198;51.464;-0.066;2024-03-02T01:49:09;99021.88;;;4.05;100.00
60355;BME280;46198;51.464;-0.066;2024-03-02T01:51:39;99020.38;;;4.09;100.00
60355;BME280;46198;51.464;-0.066;2024-03-02T01:54:08;99013.38;;;4.08;100.00
60355;BME280;46198;51.464;-0.066;2024-03-02T01:56:36;99011.84;;;4.12;100.00
60355;BME280;46198;51.464;-0.066;2024-03-02T01:59:05;99007.75;;;4.09;100.00
60355;BME280;46198;51.464;-0.066;2024-03-02T02:01:33;99005.66;;;4.11;100.00
60355;BME280;46198;51.464;-0.066;2024-03-02T02:04:02;99008.50;;;4.16;100.00
60355;BME280;46198;51.464;-0.066;2024-03-02T02:06:30;99001.88;;;4.19;100.00
60355;BME280;46198;51.464;-0.066;2024-03-02T02:09:00;99004.31;;;4.20;100.00
60355;BME280;46198;51.464;-0.066;2024-03-02T02:11:29;98997.91;;;4.21;100.00
60355;BME280;46198;51.464;-0.066;2024-03-02T02:13:58;98995.16;;;4.28;100.00
60355;BME280;46198;51.464;-0.066;2024-03-02T02:16:26;98995.53;;;4.32;100.00
60355;BME280;46198;51.464;-0.066;2024-03-02T02:18:54;98997.31;;;4.38;100.00
60355;BME280;46198;51.464;-0.066;2024-03-02T02:21:24;98992.41;;;4.35;100.00
60355;BME280;46198;51.464;-0.066;2024-03-02T02:23:54;98994.19;;;4.41;100.00
60355;BME280;46198;51.464;-0.066;2024-03-02T02:26:22;98991.28;;;4.42;100.00
60355;BME280;46198;51.464;-0.066;2024-03-02T02:28:51;98986.03;;;4.48;100.00
60355;BME280;46198;51.464;-0.066;2024-03-02T02:31:19;98992.25;;;4.48;100.00
60355;BME280;46198;51.464;-0.066;2024-03-02T02:33:47;98986.88;;;4.48;100.00
60355;BME280;46198;51.464;-0.066;2024-03-02T02:36:16;98986.31;;;4.58;100.00
60355;BME280;46198;51.464;-0.066;2024-03-02T02:38:46;98983.19;;;4.61;100.00
60355;BME280;46198;51.464;-0.066;2024-03-02T02:41:16;98980.28;;;4.62;100.00
60355;BME280;46198;51.464;-0.066;2024-03-02T02:43:44;98976.16;;;4.60;100.00
60355;BME280;46198;51.464;-0.066;2024-03-02T02:46:12;98979.47;;;4.62;100.00
60355;BME280;46198;51.464;-0.066;2024-03-02T02:48:41;98983.47;;;4.71;100.00
60355;BME280;46198;51.464;-0.066;2024-03-02T02:51:09;98980.41;;;4.68;100.00
60355;BME280;46198;51.464;-0.066;2024-03-02T02:53:37;98972.09;;;4.69;100.00
60355;BME280;46198;51.464;-0.066;2024-03-02T02:56:08;98968.97;;;4.72;100.00
60355;BME280;46198;51.464;-0.066;2024-03-02T02:58:37;98970.63;;;4.73;100.00
60355;BME280;46198;51.464;-0.066;2024-03-02T03:01:05;98970.63;;;4.73;100.00
60355;BME280;46198;51.464;-0.066;2024-03-02T03:03:33;98971.78;;;4.77;100.00
60355;BME280;46198;51.464;-0.066;2024-03-02T03:06:02;98957.31;;;4.78;100.00
60355;BME280;46198;51.464;-0.066;2024-03-02T03:08:30;98950.88;;;4.79;100.00
60355;BME280;46198;51.464;-0.066;2024-03-02T03:11:02;98958.28;;;4.84;100.00
60355;BME280;46198;51.464;-0.066;2024-03-02T03:13:32;98965.78;;;4.94;100.00
60355;BME280;46198;51.464;-0.066;2024-03-02T03:16:00;98955.84;;;4.94;100.00
60355;BME280;46198;51.464;-0.066;2024-03-02T03:18:30;98961.59;;;4.98;100.00
60355;BME280;46198;51.464;-0.066;2024-03-02T03:20:58;98957.50;;;4.95;100.00
60355;BME280;46198;51.464;-0.066;2024-03-02T03:23:26;98956.81;;;5.00;100.00
60355;BME280;46198;51.464;-0.066;2024-03-02T03:25:55;98947.09;;;4.99;100.00
60355;BME280;46198;51.464;-0.066;2024-03-02T03:28:24;98953.16;;;4.94;100.00
60355;BME280;46198;51.464;-0.066;2024-03-02T03:30:53;98935.84;;;5.02;100.00
60355;BME280;46198;51.464;-0.066;2024-03-02T03:33:22;98925.69;;;4.92;100.00
60355;BME280;46198;51.464;-0.066;2024-03-02T03:35:51;98930.59;;;4.95;100.00
60355;BME280;46198;51.464;-0.066;2024-03-02T03:38:19;98932.34;;;4.89;100.00
60355;BME280;46198;51.464;-0.066;2024-03-02T03:40:48;98933.97;;;4.91;100.00
60355;BME280;46198;51.464;-0.066;2024-03-02T03:43:16;98927.69;;;4.97;100.00
60355;BME280;46198;51.464;-0.066;2024-03-02T03:45:44;98922.75;;;4.94;100.00
60355;BME280;46198;51.464;-0.066;2024-03-02T03:48:14;98927.91;;;4.95;100.00
60355;BME280;46198;51.464;-0.066;2024-03-02T03:50:42;98917.13;;;4.83;100.00
60355;BME280;46198;51.464;-0.066;2024-03-02T03:53:11;98927.16;;;4.88;100.00
60355;BME280;46198;51.464;-0.066;2024-03-02T03:55:39;98924.75;;;4.98;100.00
60355;BME280;46198;51.464;-0.066;2024-03-02T03:58:07;98927.22;;;5.00;100.00
60355;BME280;46198;51.464;-0.066;2024-03-02T04:00:35;98927.69;;;4.97;100.00
60355;BME280;46198;51.464;-0.066;2024-03-02T04:03:04;98922.88;;;4.99;100.00
60355;BME280;46198;51.464;-0.066;2024-03-02T04:05:34;98916.47;;;5.00;100.00
60355;BME280;46198;51.464;-0.066;2024-03-02T04:08:02;98921.84;;;5.11;100.00
60355;BME280;46198;51.464;-0.066;2024-03-02T04:10:30;98920.31;;;5.04;100.00
60355;BME280;46198;51.464;-0.066;2024-03-02T04:13:01;98916.22;;;5.01;100.00
60355;BME280;46198;51.464;-0.066;2024-03-02T04:15:29;98920.91;;;5.06;100.00
60355;BME280;46198;51.464;-0.066;2024-03-02T04:17:58;98923.13;;;5.09;100.00
60355;BME280;46198;51.464;-0.066;2024-03-02T04:20:26;98915.53;;;5.06;100.00
60355;BME280;46198;51.464;-0.066;2024-03-02T04:22:55;98908.75;;;5.15;100.00
60355;BME280;46198;51.464;-0.066;2024-03-02T04:25:24;98903.84;;;5.12;100.00
60355;BME280;46198;51.464;-0.066;2024-03-02T04:27:52;98895.44;;;5.08;100.00
60355;BME280;46198;51.464;-0.066;2024-03-02T04:30:20;98900.34;;;5.11;100.00
60355;BME280;46198;51.464;-0.066;2024-03-02T04:32:49;98893.69;;;5.14;100.00
60355;BME280;46198;51.464;-0.066;2024-03-02T04:35:17;98900.56;;;5.10;100.00
60355;BME280;46198;51.464;-0.066;2024-03-02T04:37:45;98899.19;;;5.19;100.00
60355;BME280;46198;51.464;-0.066;2024-03-02T04:40:15;98896.13;;;5.16;100.00
60355;BME280;46198;51.464;-0.066;2024-03-02T04:42:43;98884.19;;;5.11;100.00
60355;BME280;46198;51.464;-0.066;2024-03-02T04:45:11;98876.25;;;5.17;100.00
60355;BME280;46198;51.464;-0.066;2024-03-02T04:47:39;98884.53;;;5.15;100.00
60355;BME280;46198;51.464;-0.066;2024-03-02T04:50:08;98887.22;;;5.15;100.00
60355;BME280;46198;51.464;-0.066;2024-03-02T04:52:37;98890.63;;;5.10;100.00
60355;BME280;46198;51.464;-0.066;2024-03-02T04:55:06;98892.16;;;5.18;100.00
60355;BME280;46198;51.464;-0.066;2024-03-02T04:58:13;98883.97;;;5.13;100.00
60355;BME280;46198;51.464;-0.066;2024-03-02T05:00:42;98885.59;;;5.14;100.00
60355;BME280;46198;51.464;-0.066;2024-03-02T05:03:13;98894.75;;;5.13;100.00
60355;BME280;46198;51.464;-0.066;2024-03-02T05:05:41;98898.13;;;5.08;100.00
60355;BME280;46198;51.464;-0.066;2024-03-02T05:08:10;98898.81;;;5.04;100.00
60355;BME280;46198;51.464;-0.066;2024-03-02T05:10:39;98898.72;;;5.10;100.00
60355;BME280;46198;51.464;-0.066;2024-03-02T05:13:07;98902.56;;;5.15;100.00
60355;BME280;46198;51.464;-0.066;2024-03-02T05:15:37;98896.03;;;5.10;100.00
60355;BME280;46198;51.464;-0.066;2024-03-02T05:18:06;98891.00;;;5.14;100.00
60355;BME280;46198;51.464;-0.066;2024-03-02T05:20:35;98890.38;;;5.12;100.00
60355;BME280;46198;51.464;-0.066;2024-03-02T05:23:06;98890.63;;;5.10;100.00
60355;BME280;46198;51.464;-0.066;2024-03-02T05:25:35;98893.53;;;5.09;100.00
60355;BME280;46198;51.464;-0.066;2024-03-02T05:28:06;98886.19;;;5.16;100.00
60355;BME280;46198;51.464;-0.066;2024-03-02T05:30:36;98881.84;;;5.15;100.00
60355;BME280;46198;51.464;-0.066;2024-03-02T05:33:04;98876.84;;;5.19;100.00
60355;BME280;46198;51.464;-0.066;2024-03-02T05:35:33;98887.81;;;5.17;100.00
60355;BME280;46198;51.464;-0.066;2024-03-02T05:38:01;98861.63;;;5.13;100.00
60355;BME280;46198;51.464;-0.066;2024-03-02T05:40:32;98869.94;;;5.11;100.00
60355;BME280;46198;51.464;-0.066;2024-03-02T05:43:00;98866.19;;;5.12;100.00
60355;BME280;46198;51.464;-0.066;2024-03-02T05:45:28;98861.63;;;5.13;100.00
60355;BME280;46198;51.464;-0.066;2024-03-02T05:47:58;98870.16;;;5.09;100.00
60355;BME280;46198;51.464;-0.066;2024-03-02T05:50:26;98863.75;;;5.10;100.00
60355;BME280;46198;51.464;-0.066;2024-03-02T05:52:55;98858.69;;;5.14;100.00
60355;BME280;46198;51.464;-0.066;2024-03-02T05:55:24;98858.22;;;5.17;100.00
60355;BME280;46198;51.464;-0.066;2024-03-02T05:57:52;98855.28;;;5.07;100.00
60355;BME280;46198;51.464;-0.066;2024-03-02T06:00:40;98851.69;;;5.13;100.00
60355;BME280;46198;51.464;-0.066;2024-03-02T06:03:10;98849.34;;;5.05;100.00
60355;BME280;46198;51.464;-0.066;2024-03-02T06:05:38;98850.50;;;5.09;100.00
60355;BME280;46198;51.464;-0.066;2024-03-02T06:08:09;98853.19;;;5.09;100.00
60355;BME280;46198;51.464;-0.066;2024-03-02T06:10:38;98850.28;;;5.10;100.00
60355;BME280;46198;51.464;-0.066;2024-03-02T06:13:07;98840.34;;;5.11;100.00
60355;BME280;46198;51.464;-0.066;2024-03-02T06:15:35;98843.38;;;5.15;100.00
60355;BME280;46198;51.464;-0.066;2024-03-02T06:18:07;98840.47;;;5.16;100.00
60355;BME280;46198;51.464;-0.066;2024-03-02T06:20:37;98836.25;;;5.20;100.00
60355;BME280;46198;51.464;-0.066;2024-03-02T06:23:05;98840.00;;;5.19;100.00
60355;BME280;46198;51.464;-0.066;2024-03-02T06:25:34;98823.84;;;5.19;100.00
60355;BME280;46198;51.464;-0.066;2024-03-02T06:28:03;98812.72;;;5.27;100.00
60355;BME280;46198;51.464;-0.066;2024-03-02T06:30:33;98837.97;;;5.26;100.00
60355;BME280;46198;51.464;-0.066;2024-03-02T06:33:01;98837.28;;;5.31;100.00
60355;BME280;46198;51.464;-0.066;2024-03-02T06:35:34;98848.50;;;5.40;100.00
60355;BME280;46198;51.464;-0.066;2024-03-02T06:38:04;98835.66;;;5.42;100.00
60355;BME280;46198;51.464;-0.066;2024-03-02T06:40:33;98837.19;;;5.38;100.00
60355;BME280;46198;51.464;-0.066;2024-03-02T06:43:04;98848.50;;;5.40;100.00
60355;BME280;46198;51.464;-0.066;2024-03-02T06:45:33;98843.72;;;5.42;100.00
60355;BME280;46198;51.464;-0.066;2024-03-02T06:48:02;98851.56;;;5.43;100.00
60355;BME280;46198;51.464;-0.066;2024-03-02T06:50:32;98852.38;;;5.44;100.00
60355;BME280;46198;51.464;-0.066;2024-03-02T06:53:05;98848.63;;;5.45;100.00
60355;BME280;46198;51.464;-0.066;2024-03-02T06:55:34;98849.81;;;5.49;100.00
60355;BME280;46198;51.464;-0.066;2024-03-02T06:58:03;98852.50;;;5.49;100.00
60355;BME280;46198;51.464;-0.066;2024-03-02T07:00:32;98848.88;;;5.55;100.00
60355;BME280;46198;51.464;-0.066;2024-03-02T07:03:01;98851.78;;;5.53;100.00
60355;BME280;46198;51.464;-0.066;2024-03-02T07:05:30;98851.34;;;5.57;100.00
60355;BME280;46198;51.464;-0.066;2024-03-02T07:11:32;98859.88;;;5.65;100.00
60355;BME280;46198;51.464;-0.066;2024-03-02T07:14:01;98861.16;;;5.63;100.00
60355;BME280;46198;51.464;-0.066;2024-03-02T07:16:33;98852.72;;;5.71;100.00
60355;BME280;46198;51.464;-0.066;2024-03-02T07:19:02;98853.31;;;5.73;100.00
60355;BME280;46198;51.464;-0.066;2024-03-02T07:21:30;98856.81;;;5.73;100.00
60355;BME280;46198;51.464;-0.066;2024-03-02T07:23:59;98863.34;;;5.77;100.00
60355;BME280;46198;51.464;-0.066;2024-03-02T07:26:31;98855.84;;;5.80;100.00
60355;BME280;46198;51.464;-0.066;2024-03-02T07:29:02;98861.09;;;5.86;100.00
60355;BME280;46198;51.464;-0.066;2024-03-02T07:31:31;98872.59;;;5.82;100.00
60355;BME280;46198;51.464;-0.066;2024-03-02T07:33:59;98877.72;;;5.83;100.00
60355;BME280;46198;51.464;-0.066;2024-03-02T07:36:28;98877.50;;;5.85;100.00
60355;BME280;46198;51.464;-0.066;2024-03-02T07:38:56;98882.31;;;5.83;100.00
60355;BME280;46198;51.464;-0.066;2024-03-02T07:41:25;98879.72;;;5.88;100.00
60355;BME280;46198;51.464;-0.066;2024-03-02T07:43:54;98876.44;;;5.86;100.00
60355;BME280;46198;51.464;-0.066;2024-03-02T07:46:23;98883.00;;;5.90;100.00
60355;BME280;46198;51.464;-0.066;2024-03-02T07:48:52;98876.22;;;5.87;100.00
60355;BME280;46198;51.464;-0.066;2024-03-02T07:51:21;98884.63;;;5.91;100.00
60355;BME280;46198;51.464;-0.066;2024-03-02T07:53:49;98890.03;;;5.91;100.00
60355;BME280;46198;51.464;-0.066;2024-03-02T07:56:18;98884.88;;;5.89;100.00
60355;BME280;46198;51.464;-0.066;2024-03-02T07:58:49;98879.97;;;5.98;100.00
60355;BME280;46198;51.464;-0.066;2024-03-02T08:01:18;98870.34;;;6.02;100.00
60355;BME280;46198;51.464;-0.066;2024-03-02T08:03:48;98881.22;;;6.07;100.00
60355;BME280;46198;51.464;-0.066;2024-03-02T08:06:17;98881.22;;;6.07;100.00
60355;BME280;46198;51.464;-0.066;2024-03-02T08:08:49;98886.41;;;6.09;100.00
60355;BME280;46198;51.464;-0.066;2024-03-02T08:11:17;98882.88;;;6.08;100.00
60355;BME280;46198;51.464;-0.066;2024-03-02T08:13:45;98883.06;;;6.18;100.00
60355;BME280;46198;51.464;-0.066;2024-03-02T08:16:14;98894.78;;;6.24;100.00
60355;BME280;46198;51.464;-0.066;2024-03-02T08:18:43;98889.75;;;6.28;100.00
60355;BME280;46198;51.464;-0.066;2024-03-02T08:21:12;98898.16;;;6.31;100.00
60355;BME280;46198;51.464;-0.066;2024-03-02T08:23:41;98890.88;;;6.32;100.00
60355;BME280;46198;51.464;-0.066;2024-03-02T08:26:11;98903.31;;;6.33;100.00
60355;BME280;46198;51.464;-0.066;2024-03-02T08:28:39;98902.41;;;6.27;100.00
60355;BME280;46198;51.464;-0.066;2024-03-02T08:31:33;98924.41;;;6.24;100.00
60355;BME280;46198;51.464;-0.066;2024-03-02T08:34:05;98908.50;;;6.22;100.00
60355;BME280;46198;51.464;-0.066;2024-03-02T08:36:34;98911.66;;;6.19;100.00
60355;BME280;46198;51.464;-0.066;2024-03-02T08:39:03;98915.78;;;6.10;100.00
60355;BME280;46198;51.464;-0.066;2024-03-02T08:41:34;98896.34;;;6.08;100.00
60355;BME280;46198;51.464;-0.066;2024-03-02T08:44:03;98910.88;;;6.19;100.00
60355;BME280;46198;51.464;-0.066;2024-03-02T08:46:31;98908.00;;;6.26;100.00
60355;BME280;46198;51.464;-0.066;2024-03-02T08:48:59;98913.63;;;6.36;100.00
60355;BME280;46198;51.464;-0.066;2024-03-02T08:51:29;98907.16;;;6.37;100.00
60355;BME280;46198;51.464;-0.066;2024-03-02T08:53:58;98913.63;;;6.36;100.00
60355;BME280;46198;51.464;-0.066;2024-03-02T08:56:27;98906.13;;;6.38;100.00
60355;BME280;46198;51.464;-0.066;2024-03-02T08:58:55;98911.84;;;6.41;100.00
60355;BME280;46198;51.464;-0.066;2024-03-02T09:04:46;98914.75;;;6.40;100.00
60355;BME280;46198;51.464;-0.066;2024-03-02T09:07:16;98918.53;;;6.39;100.00
60355;BME280;46198;51.464;-0.066;2024-03-02T09:09:47;98923.59;;;6.35;100.00
60355;BME280;46198;51.464;-0.066;2024-03-02T09:12:16;98914.75;;;6.40;100.00
60355;BME280;46198;51.464;-0.066;2024-03-02T09:14:47;98919.22;;;6.46;100.00
60355;BME280;46198;51.464;-0.066;2024-03-02T09:17:15;98926.22;;;6.47;100.00
60355;BME280;46198;51.464;-0.066;2024-03-02T09:19:44;98919.38;;;6.56;100.00
60355;BME280;46198;51.464;-0.066;2024-03-02T09:22:12;98929.78;;;6.64;100.00
60355;BME280;46198;51.464;-0.066;2024-03-02T09:24:42;98932.84;;;6.68;100.00
60355;BME280;46198;51.464;-0.066;2024-03-02T09:27:11;98935.63;;;6.73;100.00
60355;BME280;46198;51.464;-0.066;2024-03-02T09:32:58;98931.16;;;6.79;100.00
60355;BME280;46198;51.464;-0.066;2024-03-02T09:35:29;98930.28;;;6.90;100.00
60355;BME280;46198;51.464;-0.066;2024-03-02T09:37:58;98937.56;;;6.90;100.00
60355;BME280;46198;51.464;-0.066;2024-03-02T09:40:28;98936.97;;;6.87;100.00
60355;BME280;46198;51.464;-0.066;2024-03-02T09:42:56;98927.47;;;6.85;100.00
60355;BME280;46198;51.464;-0.066;2024-03-02T09:45:25;98924.41;;;6.93;100.00
60355;BME280;46198;51.464;-0.066;2024-03-02T09:47:54;98935.88;;;7.00;100.00
60355;BME280;46198;51.464;-0.066;2024-03-02T09:50:23;98930.97;;;7.14;100.00
60355;BME280;46198;51.464;-0.066;2024-03-02T09:52:52;98944.16;;;7.27;100.00
60355;BME280;46198;51.464;-0.066;2024-03-02T09:55:21;98934.00;;;7.35;100.00
60355;BME280;46198;51.464;-0.066;2024-03-02T09:57:51;98930.31;;;7.41;100.00
60355;BME280;46198;51.464;-0.066;2024-03-02T10:00:20;98929.50;;;7.40;100.00
60355;BME280;46198;51.464;-0.066;2024-03-02T10:02:48;98939.47;;;7.40;100.00
60355;BME280;46198;51.464;-0.066;2024-03-02T10:05:26;98951.00;;;7.35;100.00
60355;BME280;46198;51.464;-0.066;2024-03-02T10:07:59;98950.41;;;7.16;100.00
60355;BME280;46198;51.464;-0.066;2024-03-02T10:10:36;98955.31;;;7.02;100.00
60355;BME280;46198;51.464;-0.066;2024-03-02T10:13:09;98967.84;;;6.80;100.00
60355;BME280;46198;51.464;-0.066;2024-03-02T10:15:38;98962.13;;;6.76;100.00
60355;BME280;46198;51.464;-0.066;2024-03-02T10:18:08;98971.69;;;6.55;100.00
60355;BME280;46198;51.464;-0.066;2024-03-02T10:20:37;98984.38;;;6.43;100.00
60355;BME280;46198;51.464;-0.066;2024-03-02T10:23:11;98984.19;;;6.33;100.00
60355;BME280;46198;51.464;-0.066;2024-03-02T10:25:39;98992.28;;;6.09;100.00
60355;BME280;46198;51.464;-0.066;2024-03-02T10:28:22;98998.97;;;5.95;100.00
60355;BME280;46198;51.464;-0.066;2024-03-02T10:30:51;99002.25;;;5.97;100.00
60355;BME280;46198;51.464;-0.066;2024-03-02T10:33:21;98997.31;;;5.94;100.00
60355;BME280;46198;51.464;-0.066;2024-03-02T10:35:50;98988.53;;;5.87;100.00
60355;BME280;46198;51.464;-0.066;2024-03-02T10:38:18;98987.81;;;5.91;100.00
60355;BME280;46198;51.464;-0.066;2024-03-02T10:40:47;98989.94;;;6.01;100.00
60355;BME280;46198;51.464;-0.066;2024-03-02T10:43:21;99002.00;;;6.10;100.00
60355;BME280;46198;51.464;-0.066;2024-03-02T10:45:50;99013.59;;;5.99;100.00
60355;BME280;46198;51.464;-0.066;2024-03-02T10:48:19;99011.16;;;5.97;100.00
60355;BME280;46198;51.464;-0.066;2024-03-02T10:50:48;99015.22;;;5.88;100.00
60355;BME280;46198;51.464;-0.066;2024-03-02T10:53:18;99014.06;;;5.84;100.00
60355;BME280;46198;51.464;-0.066;2024-03-02T10:55:50;99015.22;;;5.76;100.00
60355;BME280;46198;51.464;-0.066;2024-03-02T10:58:31;99024.94;;;5.77;100.00
60355;BME280;46198;51.464;-0.066;2024-03-02T11:01:02;99020.25;;;5.85;100.00
60355;BME280;46198;51.464;-0.066;2024-03-02T11:03:33;99022.94;;;5.85;100.00
60355;BME280;46198;51.464;-0.066;2024-03-02T11:06:07;99018.50;;;5.90;100.00
60355;BME280;46198;51.464;-0.066;2024-03-02T11:08:38;99041.81;;;5.85;100.00
60355;BME280;46198;51.464;-0.066;2024-03-02T11:11:13;99041.03;;;5.96;100.00
60355;BME280;46198;51.464;-0.066;2024-03-02T11:13:49;99031.50;;;5.82;100.00
60355;BME280;46198;51.464;-0.066;2024-03-02T11:16:27;99031.13;;;5.78;100.00
60355;BME280;46198;51.464;-0.066;2024-03-02T11:19:03;99036.41;;;5.73;100.00
60355;BME280;46198;51.464;-0.066;2024-03-02T11:21:33;99031.72;;;5.68;100.00
60355;BME280;46198;51.464;-0.066;2024-03-02T11:27:06;99046.94;;;5.74;100.00
60355;BME280;46198;51.464;-0.066;2024-03-02T11:29:46;99043.56;;;5.79;100.00
60355;BME280;46198;51.464;-0.066;2024-03-02T11:32:16;99050.47;;;5.87;100.00
60355;BME280;46198;51.464;-0.066;2024-03-02T11:34:46;99041.34;;;5.88;100.00
60355;BME280;46198;51.464;-0.066;2024-03-02T11:37:16;99042.09;;;5.95;100.00
60355;BME280;46198;51.464;-0.066;2024-03-02T11:39:45;99031.66;;;5.98;100.00
60355;BME280;46198;51.464;-0.066;2024-03-02T11:42:14;99032.84;;;6.03;100.00
60355;BME280;46198;51.464;-0.066;2024-03-02T11:44:46;99031.63;;;5.87;100.00
60355;BME280;46198;51.464;-0.066;2024-03-02T11:47:16;99025.44;;;6.10;100.00
60355;BME280;46198;51.464;-0.066;2024-03-02T11:49:46;99035.41;;;6.09;100.00
60355;BME280;46198;51.464;-0.066;2024-03-02T11:52:15;99034.56;;;6.20;100.00
60355;BME280;46198;51.464;-0.066;2024-03-02T11:54:46;99067.75;;;5.97;100.00
60355;BME280;46198;51.464;-0.066;2024-03-02T12:00:35;99052.38;;;6.33;100.00
60355;BME280;46198;51.464;-0.066;2024-03-02T12:03:05;99048.72;;;6.39;100.00
60355;BME280;46198;51.464;-0.066;2024-03-02T12:05:35;99051.09;;;6.24;100.00
60355;BME280;46198;51.464;-0.066;2024-03-02T12:08:07;99041.47;;;6.28;100.00
60355;BME280;46198;51.464;-0.066;2024-03-02T12:10:36;99049.56;;;6.40;100.00
60355;BME280;46198;51.464;-0.066;2024-03-02T12:13:06;99049.66;;;6.57;100.00
60355;BME280;46198;51.464;-0.066;2024-03-02T12:15:39;99037.09;;;6.62;100.00
60355;BME280;46198;51.464;-0.066;2024-03-02T12:18:08;99042.03;;;6.65;100.00
60355;BME280;46198;51.464;-0.066;2024-03-02T12:20:38;99036.16;;;6.69;100.00
60355;BME280;46198;51.464;-0.066;2024-03-02T12:23:06;99040.69;;;6.80;100.00
60355;BME280;46198;51.464;-0.066;2024-03-02T12:25:35;99043.22;;;6.98;100.00
60355;BME280;46198;51.464;-0.066;2024-03-02T12:28:04;99039.22;;;7.01;100.00
60355;BME280;46198;51.464;-0.066;2024-03-02T12:30:35;99029.66;;;7.39;100.00
60355;BME280;46198;51.464;-0.066;2024-03-02T12:36:00;99036.63;;;7.68;100.00
60355;BME280;46198;51.464;-0.066;2024-03-02T12:38:29;99051.78;;;7.86;100.00
60355;BME280;46198;51.464;-0.066;2024-03-02T12:41:04;99040.97;;;7.86;100.00
60355;BME280;46198;51.464;-0.066;2024-03-02T12:43:32;99043.16;;;8.23;100.00
60355;BME280;46198;51.464;-0.066;2024-03-02T12:46:03;99046.56;;;8.35;100.00
60355;BME280;46198;51.464;-0.066;2024-03-02T12:48:31;99050.28;;;8.12;100.00
60355;BME280;46198;51.464;-0.066;2024-03-02T12:51:02;99058.69;;;8.33;100.00
60355;BME280;46198;51.464;-0.066;2024-03-02T12:53:30;99042.94;;;8.47;100.00
60355;BME280;46198;51.464;-0.066;2024-03-02T12:55:59;99058.44;;;8.34;100.00
60355;BME280;46198;51.464;-0.066;2024-03-02T12:58:27;99057.25;;;8.25;100.00
60355;BME280;46198;51.464;-0.066;2024-03-02T13:01:07;99066.34;;;8.19;100.00
60355;BME280;46198;51.464;-0.066;2024-03-02T13:03:37;99068.00;;;8.20;100.00
60355;BME280;46198;51.464;-0.066;2024-03-02T13:06:07;99062.06;;;8.40;100.00
60355;BME280;46198;51.464;-0.066;2024-03-02T13:08:36;99059.53;;;8.72;100.00
60355;BME280;46198;51.464;-0.066;2024-03-02T13:11:04;99054.88;;;8.90;100.00
60355;BME280;46198;51.464;-0.066;2024-03-02T13:13:33;99062.75;;;8.69;100.00
60355;BME280;46198;51.464;-0.066;2024-03-02T13:16:02;99056.53;;;8.91;100.00
60355;BME280;46198;51.464;-0.066;2024-03-02T13:18:33;99086.50;;;9.33;100.00
60355;BME280;46198;51.464;-0.066;2024-03-02T13:21:01;99060.53;;;9.10;100.00
60355;BME280;46198;51.464;-0.066;2024-03-02T13:23:34;99045.63;;;9.35;100.00